createdAt,value
2023-03-29T00:19:43.306Z,5.09
2023-03-29T00:49:46.598Z,4.58
2023-03-29T01:19:52.314Z,4.31
2023-03-29T01:50:01.258Z,4.25
2023-03-29T02:20:06.901Z,4.15
2023-03-29T02:50:10.458Z,4.40
2023-03-29T03:20:13.657Z,4.64
2023-03-29T03:50:20.027Z,4.85
2023-03-29T04:20:23.329Z,5.11
2023-03-29T04:50:26.337Z,4.82
2023-03-29T05:20:29.370Z,5.04
2023-03-29T05:50:32.309Z,5.28
2023-03-29T06:20:35.265Z,5.57
2023-03-29T06:50:38.425Z,5.80
2023-03-29T07:20:41.412Z,6.28
2023-03-29T07:50:44.435Z,6.87
2023-03-29T08:20:47.424Z,7.87
2023-03-29T08:50:51.970Z,8.88
2023-03-29T09:20:57.893Z,9.56
2023-03-29T09:51:01.214Z,9.52
2023-03-29T10:21:05.779Z,10.27
2023-03-29T10:51:08.821Z,12.53
2023-03-29T11:21:19.272Z,13.15
2023-03-29T11:51:24.038Z,12.71
2023-03-29T12:21:29.057Z,13.41
2023-03-29T12:51:35.150Z,13.40
2023-03-29T13:21:47.592Z,15.26
2023-03-29T13:52:04.758Z,17.33
2023-03-29T14:22:12.069Z,16.57
2023-03-29T14:52:15.430Z,14.66
2023-03-29T15:22:18.472Z,14.67
2023-03-29T15:52:21.392Z,14.65
2023-03-29T16:22:24.758Z,14.25
2023-03-29T16:52:27.741Z,13.95
2023-03-29T17:22:30.679Z,13.52
2023-03-29T17:52:33.677Z,13.04
2023-03-29T18:22:36.965Z,12.72
2023-03-29T18:52:39.867Z,12.59
2023-03-29T19:22:42.854Z,12.44
2023-03-29T19:52:45.806Z,12.24
2023-03-29T20:22:48.823Z,12.14
2023-03-29T20:52:51.845Z,12.32
2023-03-29T21:22:54.862Z,12.24
2023-03-29T21:52:57.858Z,12.18
2023-03-29T22:23:00.848Z,12.33
2023-03-29T22:53:03.808Z,12.70
2023-03-29T23:23:06.850Z,12.16
2023-03-29T23:53:09.748Z,12.30
